createdAt,value
2022-08-01T00:00:39.325Z,79.72
2022-08-01T00:01:39.121Z,79.72
2022-08-01T00:02:39.497Z,79.38
2022-08-01T00:03:39.135Z,79.42
2022-08-01T00:04:39.135Z,79.72
2022-08-01T00:05:39.140Z,79.72
2022-08-01T00:06:39.143Z,80.31
2022-08-01T00:07:39.148Z,80.41
2022-08-01T00:08:39.352Z,80.51
2022-08-01T00:09:39.156Z,80.41
2022-08-01T00:10:39.159Z,80.71
2022-08-01T00:11:39.163Z,80.41
2022-08-01T00:12:39.165Z,81.11
2022-08-01T00:13:39.174Z,80.91
2022-08-01T00:14:39.175Z,80.81
2022-08-01T00:15:39.180Z,80.91
2022-08-01T00:16:39.183Z,81.01
2022-08-01T00:17:39.200Z,81.40
2022-08-01T00:18:39.189Z,81.11
2022-08-01T00:19:39.204Z,81.01
2022-08-01T00:20:39.196Z,81.40
2022-08-01T00:21:39.206Z,81.30
2022-08-01T00:22:39.211Z,80.71
2022-08-01T00:23:39.211Z,81.11
2022-08-01T00:24:39.220Z,81.11
2022-08-01T00:25:39.221Z,81.30
2022-08-01T00:26:39.219Z,81.30
2022-08-01T00:27:39.231Z,81.30
2022-08-01T00:28:39.231Z,81.11
2022-08-01T00:30:12.531Z,81.70
2022-08-01T00:30:39.237Z,81.40
2022-08-01T00:31:39.241Z,81.54
2022-08-01T00:32:39.244Z,81.64
2022-08-01T00:33:39.255Z,81.45
2022-08-01T00:34:39.253Z,81.64
2022-08-01T00:35:39.459Z,82.24
2022-08-01T00:36:39.261Z,82.14
2022-08-01T00:37:39.276Z,82.64
2022-08-01T00:38:39.272Z,82.57
2022-08-01T00:39:39.474Z,82.28
2022-08-01T00:40:39.278Z,81.78
2022-08-01T00:41:39.287Z,82.18
2022-08-01T00:42:43.507Z,82.38
2022-08-01T00:43:39.290Z,82.84
2022-08-01T00:44:39.309Z,83.37
2022-08-01T00:45:39.297Z,82.68
2022-08-01T00:46:39.298Z,83.07
2022-08-01T00:47:39.303Z,82.87
2022-08-01T00:48:39.310Z,82.68
2022-08-01T00:51:39.321Z,83.37
2022-08-01T00:52:39.322Z,83.27
2022-08-01T00:53:51.552Z,83.97
2022-08-01T00:54:39.334Z,83.87
2022-08-01T00:55:39.335Z,83.87
2022-08-01T00:56:39.339Z,83.97
2022-08-01T00:58:04.981Z,84.06
2022-08-01T00:58:39.348Z,84.47
2022-08-01T00:59:39.922Z,84.86
2022-08-01T01:00:53.023Z,85.16
2022-08-01T01:01:40.197Z,85.46
2022-08-01T01:02:39.360Z,86.35
2022-08-01T01:03:58.061Z,86.35
2022-08-01T01:04:39.369Z,86.19
2022-08-01T01:05:39.378Z,85.86
2022-08-01T01:06:39.378Z,86.35
2022-08-01T01:07:39.384Z,86.35
2022-08-01T01:08:39.389Z,87.05
2022-08-01T01:09:39.390Z,86.95
2022-08-01T01:10:39.393Z,86.65
2022-08-01T01:11:39.400Z,87.24
2022-08-01T01:12:41.654Z,86.55
2022-08-01T01:13:50.402Z,87.29
2022-08-01T01:14:39.410Z,87.29
2022-08-01T01:15:39.414Z,87.74
2022-08-01T01:16:39.414Z,87.49
2022-08-01T01:17:50.120Z,87.24
2022-08-01T01:18:39.426Z,87.54
2022-08-01T01:19:39.427Z,87.88
2022-08-01T01:20:39.429Z,88.09
2022-08-01T01:21:39.433Z,87.24
2022-08-01T01:22:39.441Z,88.64
2022-08-01T01:23:39.449Z,87.98
2022-08-01T01:24:39.451Z,88.18
2022-08-01T01:25:39.452Z,88.28
2022-08-01T01:26:39.452Z,87.98
2022-08-01T01:27:39.463Z,87.98
2022-08-01T01:28:39.463Z,87.98
2022-08-01T01:29:58.817Z,88.98
2022-08-01T01:30:39.471Z,88.88
2022-08-01T01:31:39.473Z,88.88
2022-08-01T01:32:39.479Z,88.68
2022-08-01T01:33:47.156Z,88.18
2022-08-01T01:34:39.483Z,87.68
2022-08-01T01:35:39.489Z,89.18
2022-08-01T01:36:39.492Z,88.98
2022-08-01T01:37:39.502Z,88.53
2022-08-01T01:38:39.499Z,89.08
2022-08-01T01:39:39.506Z,89.18
2022-08-01T01:40:39.507Z,89.08
2022-08-01T01:41:39.523Z,89.37
2022-08-01T01:42:39.513Z,89.78
2022-08-01T01:43:39.569Z,89.97
2022-08-01T01:44:39.523Z,89.67
2022-08-01T01:45:39.527Z,90.52
2022-08-01T01:46:39.532Z,90.01
2022-08-01T01:47:39.532Z,91.41
2022-08-01T01:48:39.535Z,91.21
2022-08-01T01:49:39.543Z,91.31
2022-08-01T01:50:39.549Z,90.36
2022-08-01T01:51:39.550Z,90.22
2022-08-01T01:52:39.552Z,90.52
2022-08-01T01:53:39.558Z,91.41
2022-08-01T01:55:49.094Z,90.71
2022-08-01T01:56:39.567Z,90.71
2022-08-01T01:57:39.579Z,91.61
2022-08-01T01:58:39.579Z,91.91
2022-08-01T01:59:39.583Z,90.61
2022-08-01T02:00:39.582Z,91.01
2022-08-01T02:02:05.708Z,90.71
2022-08-01T02:03:39.592Z,91.41
2022-08-01T02:04:39.594Z,91.41
2022-08-01T02:05:39.606Z,91.21
2022-08-01T02:07:39.608Z,91.61
2022-08-01T02:08:39.611Z,91.91
2022-08-01T02:09:39.615Z,91.41
2022-08-01T02:10:39.624Z,92.21
2022-08-01T02:12:07.240Z,91.51
2022-08-01T02:12:39.629Z,90.81
2022-08-01T02:13:39.630Z,90.71
2022-08-01T02:14:39.637Z,91.01
2022-08-01T02:16:00.222Z,91.11
2022-08-01T02:16:39.642Z,92.70
2022-08-01T02:17:39.644Z,91.91
2022-08-01T02:20:39.657Z,91.11
2022-08-01T02:21:39.658Z,92.40
2022-08-01T02:22:39.666Z,91.41
2022-08-01T02:23:39.666Z,91.85
2022-08-01T02:24:39.671Z,92.50
2022-08-01T02:25:39.675Z,91.71
2022-08-01T02:26:39.680Z,92.10
2022-08-01T02:27:39.678Z,92.40
2022-08-01T02:28:39.685Z,90.91
2022-08-01T02:29:39.688Z,91.51
2022-08-01T02:30:39.695Z,91.61
2022-08-01T02:31:39.693Z,91.91
2022-08-01T02:32:39.703Z,90.91
2022-08-01T02:33:39.702Z,92.40
2022-08-01T02:34:39.708Z,90.81
2022-08-01T02:36:30.414Z,92.00
2022-08-01T02:36:39.712Z,91.21
2022-08-01T02:37:41.931Z,91.81
2022-08-01T02:38:39.720Z,91.61
2022-08-01T02:39:39.924Z,90.75
2022-08-01T02:40:39.730Z,91.85
2022-08-01T02:41:39.731Z,92.05
2022-08-01T02:42:39.735Z,92.45
2022-08-01T02:43:39.743Z,91.85
2022-08-01T02:44:39.740Z,91.55
2022-08-01T02:45:39.747Z,91.65
2022-08-01T02:46:39.750Z,92.45
2022-08-01T02:47:39.751Z,92.85
2022-08-01T02:48:39.759Z,93.64
2022-08-01T02:49:39.759Z,92.45
2022-08-01T02:50:39.766Z,93.79
2022-08-01T02:51:39.765Z,93.69
2022-08-01T02:52:39.771Z,94.18
2022-08-01T02:53:44.646Z,94.28
2022-08-01T02:54:39.781Z,94.73
2022-08-01T02:55:39.779Z,93.83
2022-08-01T02:56:39.986Z,93.93
2022-08-01T02:57:52.490Z,93.83
2022-08-01T02:58:39.798Z,94.53
2022-08-01T02:59:41.275Z,93.73
2022-08-01T03:00:39.803Z,93.63
2022-08-01T03:01:42.023Z,93.88
2022-08-01T03:02:39.807Z,94.63
2022-08-01T03:03:39.809Z,95.23
2022-08-01T03:04:39.814Z,94.43
2022-08-01T03:05:39.820Z,94.13
2022-08-01T03:06:39.819Z,93.93
2022-08-01T03:07:40.641Z,93.73
2022-08-01T03:08:39.825Z,94.63
2022-08-01T03:09:39.831Z,95.32
2022-08-01T03:10:39.839Z,95.12
2022-08-01T03:11:39.837Z,94.78
2022-08-01T03:12:39.841Z,95.32
2022-08-01T03:13:39.841Z,95.72
2022-08-01T03:14:39.850Z,95.12
2022-08-01T03:15:39.856Z,95.87
2022-08-01T03:16:39.856Z,96.26
2022-08-01T03:17:39.863Z,96.26
2022-08-01T03:18:39.861Z,95.83
2022-08-01T03:19:39.866Z,96.02
2022-08-01T03:20:39.870Z,95.32
2022-08-01T03:21:39.870Z,94.53
2022-08-01T03:22:39.877Z,95.72
2022-08-01T03:23:39.876Z,96.02
2022-08-01T03:24:39.882Z,95.53
2022-08-01T03:25:39.888Z,94.82
2022-08-01T03:26:39.885Z,95.72
2022-08-01T03:27:39.888Z,96.12
2022-08-01T03:28:39.902Z,95.53
2022-08-01T03:29:39.897Z,95.32
2022-08-01T03:30:39.902Z,95.62
2022-08-01T03:31:39.900Z,95.32
2022-08-01T03:32:39.907Z,96.02
2022-08-01T03:33:39.910Z,95.18
2022-08-01T03:34:39.916Z,96.02
2022-08-01T03:35:39.916Z,94.28
2022-08-01T03:36:39.923Z,94.09
2022-08-01T03:37:49.689Z,94.68
2022-08-01T03:38:39.929Z,95.83
2022-08-01T03:39:39.929Z,96.12
2022-08-01T03:40:39.933Z,95.03
2022-08-01T03:41:39.935Z,96.42
2022-08-01T03:42:39.951Z,96.42
2022-08-01T03:43:39.939Z,96.22
2022-08-01T03:44:39.951Z,96.52
2022-08-01T03:45:39.949Z,96.12
2022-08-01T03:46:39.951Z,96.12
2022-08-01T03:47:40.863Z,96.97
2022-08-01T03:48:39.958Z,97.36
2022-08-01T03:49:39.964Z,97.56
2022-08-01T03:50:39.964Z,96.47
2022-08-01T03:51:39.968Z,96.52
2022-08-01T03:52:39.976Z,96.62
2022-08-01T03:53:42.547Z,97.02
2022-08-01T03:54:39.977Z,96.67
2022-08-01T03:55:39.982Z,97.61
2022-08-01T03:57:39.989Z,96.72
2022-08-01T03:58:39.990Z,96.22
2022-08-01T03:59:39.995Z,97.27
2022-08-01T04:00:39.998Z,96.92
2022-08-01T04:01:40.094Z,96.72
2022-08-01T04:02:40.014Z,96.62
2022-08-01T04:03:42.044Z,96.62
2022-08-01T04:04:40.024Z,96.62
2022-08-01T04:05:40.013Z,96.92
2022-08-01T04:06:40.020Z,96.22
2022-08-01T04:07:40.035Z,96.28
2022-08-01T04:08:40.025Z,96.28
2022-08-01T04:09:40.031Z,96.47
2022-08-01T04:10:40.030Z,96.28
2022-08-01T04:11:40.033Z,96.37
2022-08-01T04:12:40.040Z,96.47
2022-08-01T04:13:40.042Z,95.78
2022-08-01T04:14:40.045Z,96.37
2022-08-01T04:15:40.251Z,96.88
2022-08-01T04:16:40.052Z,96.77
2022-08-01T04:17:40.062Z,96.88
2022-08-01T04:18:40.056Z,97.07
2022-08-01T04:19:40.066Z,97.27
2022-08-01T04:21:40.072Z,97.61
2022-08-01T04:22:40.066Z,97.52
2022-08-01T04:23:40.072Z,97.47
2022-08-01T04:24:40.077Z,97.72
2022-08-01T04:25:40.090Z,97.72
2022-08-01T04:26:40.088Z,97.77
2022-08-01T04:28:40.091Z,97.47
2022-08-01T04:29:40.097Z,97.57
2022-08-01T04:30:40.099Z,97.42
2022-08-01T04:31:40.100Z,97.42
2022-08-01T04:32:40.109Z,97.52
2022-08-01T04:33:40.109Z,97.32
2022-08-01T04:34:51.390Z,97.57
2022-08-01T04:36:02.579Z,97.27
2022-08-01T04:36:51.403Z,96.92
2022-08-01T04:37:51.393Z,97.13
2022-08-01T04:38:51.404Z,97.32
2022-08-01T04:39:51.434Z,97.13
2022-08-01T04:40:51.403Z,97.82
2022-08-01T04:41:51.405Z,97.22
2022-08-01T04:42:51.415Z,96.73
2022-08-01T04:43:51.413Z,96.92
2022-08-01T04:44:51.418Z,97.22
2022-08-01T04:45:51.420Z,96.83
2022-08-01T04:46:51.448Z,97.13
2022-08-01T04:47:51.427Z,97.42
2022-08-01T04:48:51.540Z,97.03
2022-08-01T04:49:51.470Z,97.08
2022-08-01T04:50:51.437Z,96.92
2022-08-01T04:51:51.443Z,97.32
2022-08-01T04:52:51.444Z,96.48
2022-08-01T04:53:51.451Z,96.78
2022-08-01T04:54:51.455Z,96.58
2022-08-01T04:55:51.454Z,96.58
2022-08-01T04:56:51.647Z,96.78
2022-08-01T04:57:51.473Z,97.22
2022-08-01T04:58:51.466Z,97.18
2022-08-01T04:59:51.470Z,97.28
2022-08-01T05:00:51.534Z,96.78
2022-08-01T05:01:51.651Z,96.78
2022-08-01T05:02:51.477Z,96.78
2022-08-01T05:03:51.486Z,96.98
2022-08-01T05:04:51.490Z,97.67
2022-08-01T05:05:51.487Z,97.47
2022-08-01T05:06:51.489Z,97.47
2022-08-01T05:07:51.494Z,97.77
2022-08-01T05:08:51.496Z,97.67
2022-08-01T05:09:51.502Z,97.38
2022-08-01T05:10:51.508Z,97.58
2022-08-01T05:11:51.504Z,97.82
2022-08-01T05:12:51.513Z,98.42
2022-08-01T05:13:51.517Z,98.82
2022-08-01T05:14:51.522Z,98.52
2022-08-01T05:15:51.522Z,98.61
2022-08-01T05:16:51.529Z,98.42
2022-08-01T05:17:51.529Z,98.77
2022-08-01T05:18:51.533Z,97.38
2022-08-01T05:19:51.537Z,97.77
2022-08-01T05:20:51.539Z,97.67
2022-08-01T05:21:51.548Z,97.88
2022-08-01T05:22:51.561Z,98.37
2022-08-01T05:23:51.556Z,98.37
2022-08-01T05:24:51.553Z,98.27
2022-08-01T05:25:56.818Z,98.57
2022-08-01T05:26:51.561Z,98.72
2022-08-01T05:27:51.562Z,98.67
2022-08-01T05:28:51.567Z,98.57
2022-08-01T05:29:51.571Z,98.87
2022-08-01T05:30:51.634Z,99.07
2022-08-01T05:31:51.580Z,99.99
2022-08-01T05:32:51.582Z,99.81
2022-08-01T05:33:51.582Z,99.32
2022-08-01T05:34:51.590Z,99.71
2022-08-01T05:35:51.591Z,99.81
2022-08-01T05:36:55.395Z,99.99
2022-08-01T05:37:51.599Z,99.41
2022-08-01T05:38:51.603Z,99.51
2022-08-01T05:39:51.602Z,99.99
2022-08-01T05:40:51.608Z,99.32
2022-08-01T05:41:51.612Z,99.32
2022-08-01T05:42:51.614Z,99.96
2022-08-01T05:43:51.615Z,99.76
2022-08-01T05:44:51.629Z,99.61
2022-08-01T05:45:51.627Z,99.51
2022-08-01T05:46:51.631Z,99.99
2022-08-01T05:47:51.634Z,99.99
2022-08-01T05:48:51.704Z,99.76
2022-08-01T05:49:51.647Z,99.27
2022-08-01T05:50:54.655Z,99.27
2022-08-01T05:51:51.648Z,99.27
2022-08-01T05:52:51.651Z,99.16
2022-08-01T05:53:51.660Z,99.99
2022-08-01T05:54:51.655Z,99.27
2022-08-01T05:55:51.661Z,99.27
2022-08-01T05:56:51.667Z,99.87
2022-08-01T05:57:51.666Z,99.27
2022-08-01T05:58:51.672Z,99.37
2022-08-01T05:59:51.675Z,99.76
2022-08-01T06:00:51.678Z,98.97
2022-08-01T06:01:51.708Z,98.62
2022-08-01T06:02:51.685Z,99.99
2022-08-01T06:03:51.694Z,99.99
2022-08-01T06:04:51.693Z,99.46
2022-08-01T06:05:51.696Z,99.22
2022-08-01T06:06:51.701Z,99.37
2022-08-01T06:07:51.710Z,99.62
2022-08-01T06:08:51.713Z,99.71
2022-08-01T06:09:51.715Z,99.42
2022-08-01T06:10:51.716Z,99.32
2022-08-01T06:11:51.716Z,99.87
2022-08-01T06:12:51.722Z,99.99
2022-08-01T06:13:51.723Z,99.99
2022-08-01T06:14:51.728Z,99.99
2022-08-01T06:15:51.733Z,99.71
2022-08-01T06:16:51.735Z,99.71
2022-08-01T06:17:51.740Z,99.62
2022-08-01T06:18:56.251Z,99.71
2022-08-01T06:19:51.745Z,99.62
2022-08-01T06:20:51.751Z,99.62
2022-08-01T06:21:51.751Z,99.42
2022-08-01T06:22:52.668Z,99.91
2022-08-01T06:23:51.760Z,99.42
2022-08-01T06:24:51.764Z,99.82
2022-08-01T06:25:51.768Z,99.52
2022-08-01T06:26:51.773Z,99.12
2022-08-01T06:27:51.773Z,99.57
2022-08-01T06:28:51.778Z,99.22
2022-08-01T06:29:54.117Z,99.32
2022-08-01T06:30:51.787Z,99.02
2022-08-01T06:31:51.790Z,99.99
2022-08-01T06:32:51.791Z,99.99
2022-08-01T06:33:51.798Z,99.99
2022-08-01T06:34:51.800Z,99.22
2022-08-01T06:35:51.803Z,99.62
2022-08-01T06:36:51.809Z,99.62
2022-08-01T06:37:51.815Z,99.27
2022-08-01T06:38:51.818Z,98.63
2022-08-01T06:39:51.815Z,98.28
2022-08-01T06:40:51.823Z,98.28
2022-08-01T06:41:51.825Z,98.13
2022-08-01T06:42:51.828Z,98.03
2022-08-01T06:43:51.833Z,98.47
2022-08-01T06:44:51.836Z,99.67
2022-08-01T06:45:51.836Z,99.17
2022-08-01T06:46:51.845Z,98.68
2022-08-01T06:47:51.845Z,98.77
2022-08-01T06:48:51.891Z,97.93
2022-08-01T06:49:51.861Z,98.72
2022-08-01T06:50:52.055Z,98.23
2022-08-01T06:51:51.863Z,97.93
2022-08-01T06:52:51.866Z,97.53
2022-08-01T06:53:51.869Z,97.24
2022-08-01T06:54:51.877Z,97.24
2022-08-01T06:55:51.876Z,97.24
2022-08-01T06:56:51.883Z,97.14
2022-08-01T06:57:51.886Z,97.53
2022-08-01T06:58:51.893Z,97.14
2022-08-01T06:59:54.637Z,97.09
2022-08-01T07:00:55.935Z,96.69
2022-08-01T07:01:51.902Z,97.39
2022-08-01T07:02:51.907Z,96.99
2022-08-01T07:03:53.672Z,96.25
2022-08-01T07:04:51.904Z,96.50
2022-08-01T07:05:51.917Z,96.11
2022-08-01T07:06:51.917Z,95.36
2022-08-01T07:07:51.937Z,95.56
2022-08-01T07:08:51.931Z,94.82
2022-08-01T07:09:51.934Z,94.13
2022-08-01T07:10:51.932Z,93.09
2022-08-01T07:11:51.938Z,93.09
2022-08-01T07:12:51.942Z,93.09
2022-08-01T07:13:51.953Z,92.85
2022-08-01T07:14:51.947Z,92.25
2022-08-01T07:15:51.957Z,91.36
2022-08-01T07:16:51.958Z,91.86
2022-08-01T07:17:51.962Z,92.40
2022-08-01T07:18:51.992Z,93.19
2022-08-01T07:19:51.970Z,93.09
2022-08-01T07:20:52.905Z,92.90
2022-08-01T07:21:51.981Z,93.39
2022-08-01T07:22:51.985Z,93.04
2022-08-01T07:23:51.989Z,93.59
2022-08-01T07:24:54.705Z,93.29
2022-08-01T07:25:52.999Z,93.19
2022-08-01T07:26:53.494Z,93.14
2022-08-01T07:27:52.012Z,93.24
2022-08-01T07:28:52.011Z,93.24
2022-08-01T07:29:52.013Z,93.44
2022-08-01T07:30:52.022Z,93.33
2022-08-01T07:31:52.026Z,93.04
2022-08-01T07:32:52.233Z,93.44
2022-08-01T07:33:52.034Z,93.59
2022-08-01T07:34:52.044Z,93.24
2022-08-01T07:35:52.049Z,93.54
2022-08-01T07:36:52.048Z,93.19
2022-08-01T07:37:52.257Z,93.54
2022-08-01T07:38:52.060Z,93.04
2022-08-01T07:39:52.064Z,92.80
2022-08-01T07:40:52.071Z,93.04
2022-08-01T07:42:06.003Z,92.94
2022-08-01T07:42:52.075Z,93.24
2022-08-01T07:43:57.314Z,92.94
2022-08-01T07:44:52.086Z,92.54
2022-08-01T07:45:52.088Z,92.40
2022-08-01T07:46:52.093Z,93.19
2022-08-01T07:47:52.098Z,92.54
2022-08-01T07:48:52.159Z,93.14
2022-08-01T07:49:52.107Z,91.91
2022-08-01T07:50:52.112Z,91.71
2022-08-01T07:52:02.708Z,93.09
2022-08-01T07:52:52.124Z,91.91
2022-08-01T07:53:53.355Z,91.71
2022-08-01T07:54:52.421Z,91.71
2022-08-01T07:55:52.137Z,91.71
2022-08-01T07:56:52.144Z,91.91
2022-08-01T07:57:52.144Z,91.81
2022-08-01T07:58:52.158Z,91.71
2022-08-01T07:59:52.154Z,91.81
2022-08-01T08:00:52.168Z,91.21
2022-08-01T08:01:52.264Z,91.61
2022-08-01T08:02:52.171Z,91.56
2022-08-01T08:03:52.170Z,91.47
2022-08-01T08:04:52.176Z,91.27
2022-08-01T08:06:00.136Z,90.91
2022-08-01T08:06:52.186Z,90.81
2022-08-01T08:07:52.192Z,90.97
2022-08-01T08:08:52.202Z,91.47
2022-08-01T08:09:52.209Z,91.21
2022-08-01T08:10:52.210Z,92.40
2022-08-01T08:11:52.215Z,92.10
2022-08-01T08:12:52.216Z,91.61
2022-08-01T08:13:52.221Z,92.00
2022-08-01T08:14:52.226Z,91.81
2022-08-01T08:15:52.476Z,92.44
2022-08-01T08:16:52.242Z,92.05
2022-08-01T08:17:55.178Z,92.44
2022-08-01T08:18:52.245Z,92.05
2022-08-01T08:19:52.250Z,92.44
2022-08-01T08:20:52.258Z,92.25
2022-08-01T08:22:52.264Z,91.85
2022-08-01T08:23:52.273Z,91.70
2022-08-01T08:24:52.277Z,91.99
2022-08-01T08:25:52.283Z,91.75
2022-08-01T08:26:52.440Z,91.46
2022-08-01T08:27:52.299Z,90.22
2022-08-01T08:28:52.297Z,90.87
2022-08-01T08:29:52.302Z,89.54
2022-08-01T08:30:52.306Z,88.21
2022-08-01T08:31:53.118Z,88.21
2022-08-01T08:32:52.315Z,88.31
2022-08-01T08:33:52.319Z,88.17
2022-08-01T08:34:52.321Z,88.07
2022-08-01T08:35:54.078Z,88.27
2022-08-01T08:36:52.333Z,87.18
2022-08-01T08:37:52.340Z,87.32
2022-08-01T08:38:52.345Z,87.66
2022-08-01T08:39:52.351Z,88.95
2022-08-01T08:40:52.355Z,89.04
2022-08-01T08:41:52.359Z,88.99
2022-08-01T08:42:52.360Z,88.64
2022-08-01T08:43:52.372Z,89.03
2022-08-01T08:44:52.385Z,89.92
2022-08-01T08:46:00.022Z,89.97
2022-08-01T08:46:52.483Z,90.70
2022-08-01T08:47:52.587Z,91.10
2022-08-01T08:48:52.478Z,91.44
2022-08-01T08:49:52.406Z,91.98
2022-08-01T08:50:52.407Z,91.98
2022-08-01T08:51:52.421Z,92.08
2022-08-01T08:52:52.420Z,92.18
2022-08-01T08:53:52.422Z,91.98
2022-08-01T08:54:52.427Z,91.88
2022-08-01T08:56:52.436Z,91.74
2022-08-01T08:57:52.642Z,91.69
2022-08-01T08:58:52.490Z,91.58
2022-08-01T08:59:52.449Z,91.29
2022-08-01T09:00:52.458Z,91.44
2022-08-01T09:01:53.504Z,90.16
2022-08-01T09:03:52.473Z,91.30
2022-08-01T09:04:52.473Z,90.86
2022-08-01T09:05:52.475Z,89.57
2022-08-01T09:06:52.480Z,90.14
2022-08-01T09:07:52.688Z,87.08
2022-08-01T09:08:52.496Z,86.45
2022-08-01T09:09:52.522Z,85.71
2022-08-01T09:11:57.719Z,84.01
2022-08-01T09:12:52.513Z,82.75
2022-08-01T09:13:52.519Z,81.78
2022-08-01T09:14:52.526Z,80.66
2022-08-01T09:15:52.530Z,79.54
2022-08-01T09:16:52.552Z,79.44
2022-08-01T09:17:52.548Z,79.03
2022-08-01T09:19:52.555Z,80.48
2022-08-01T09:20:52.563Z,80.72
2022-08-01T09:21:52.771Z,81.25
2022-08-01T09:22:52.577Z,81.94
2022-08-01T09:23:54.311Z,82.28
2022-08-01T09:24:52.587Z,82.51
2022-08-01T09:25:52.793Z,82.65
2022-08-01T09:26:52.598Z,83.68
2022-08-01T09:27:52.612Z,83.18
2022-08-01T09:30:00.581Z,84.27
2022-08-01T09:30:52.624Z,83.58
2022-08-01T09:31:52.637Z,84.67
2022-08-01T09:32:52.641Z,84.87
2022-08-01T09:33:52.648Z,83.18
2022-08-01T09:34:52.653Z,82.64
2022-08-01T09:37:05.708Z,83.76
2022-08-01T09:37:52.671Z,84.02
2022-08-01T09:38:52.682Z,83.39
2022-08-01T09:39:52.683Z,82.65
2022-08-01T09:40:52.693Z,81.98
2022-08-01T09:41:52.699Z,80.66
2022-08-01T09:42:52.706Z,80.91
2022-08-01T09:43:52.709Z,80.52
2022-08-01T09:44:54.963Z,79.74
2022-08-01T09:45:53.017Z,79.74
2022-08-01T09:46:52.732Z,80.43
2022-08-01T09:47:52.736Z,78.94
2022-08-01T09:48:52.783Z,79.47
2022-08-01T09:49:53.132Z,79.12
2022-08-01T09:50:52.762Z,79.22
2022-08-01T09:51:58.984Z,81.29
2022-08-01T09:52:52.774Z,80.46
2022-08-01T09:53:53.498Z,81.05
2022-08-01T09:54:52.793Z,80.66
2022-08-01T09:55:52.797Z,80.56
2022-08-01T09:56:52.801Z,80.11
2022-08-01T09:57:52.809Z,80.90
2022-08-01T09:58:58.959Z,81.09
2022-08-01T10:00:01.292Z,80.90
2022-08-01T10:00:52.830Z,81.23
2022-08-01T10:01:52.838Z,80.74
2022-08-01T10:02:52.845Z,80.83
2022-08-01T10:03:52.920Z,80.74
2022-08-01T10:04:55.803Z,80.74
2022-08-01T10:05:52.864Z,80.83
2022-08-01T10:06:52.875Z,80.93
2022-08-01T10:07:52.879Z,81.63
2022-08-01T10:08:52.886Z,81.33
2022-08-01T10:09:52.892Z,80.83
2022-08-01T10:10:54.798Z,81.37
2022-08-01T10:11:52.904Z,81.17
2022-08-01T10:12:52.912Z,81.71
2022-08-01T10:13:52.919Z,82.40
2022-08-01T10:14:52.926Z,82.00
2022-08-01T10:15:52.927Z,82.69
2022-08-01T10:16:56.658Z,83.82
2022-08-01T10:17:54.382Z,84.02
2022-08-01T10:18:52.951Z,83.66
2022-08-01T10:19:52.958Z,83.72
2022-08-01T10:20:52.966Z,84.55
2022-08-01T10:21:57.887Z,84.45
2022-08-01T10:22:52.975Z,85.74
2022-08-01T10:23:52.989Z,85.44
2022-08-01T10:24:52.992Z,85.05
2022-08-01T10:25:52.989Z,85.44
2022-08-01T10:26:53.008Z,85.64
2022-08-01T10:27:53.011Z,84.75
2022-08-01T10:30:05.156Z,85.88
2022-08-01T10:30:53.293Z,85.88
2022-08-01T10:31:53.031Z,85.98
2022-08-01T10:32:53.125Z,85.98
2022-08-01T10:33:53.626Z,85.58
2022-08-01T10:34:53.066Z,85.28
2022-08-01T10:35:53.055Z,85.09
2022-08-01T10:36:53.073Z,85.68
2022-08-01T10:37:53.078Z,84.50
2022-08-01T10:38:53.077Z,84.69
2022-08-01T10:40:08.574Z,85.09
2022-08-01T10:40:53.085Z,84.79
2022-08-01T10:41:53.090Z,84.83
2022-08-01T10:42:53.096Z,85.63
2022-08-01T10:43:53.105Z,85.53
2022-08-01T10:44:53.109Z,86.91
2022-08-01T10:46:53.182Z,85.37
2022-08-01T10:47:53.217Z,87.21
2022-08-01T10:48:53.220Z,85.77
2022-08-01T10:49:53.138Z,86.36
2022-08-01T10:50:53.148Z,86.26
2022-08-01T10:51:54.854Z,86.80
2022-08-01T10:52:53.154Z,87.59
2022-08-01T10:53:54.401Z,87.19
2022-08-01T10:54:53.369Z,86.95
2022-08-01T10:55:53.170Z,87.49
2022-08-01T10:56:53.178Z,87.25
2022-08-01T10:57:53.297Z,87.74
2022-08-01T10:58:53.187Z,88.14
2022-08-01T10:59:59.362Z,87.35
2022-08-01T11:00:53.213Z,87.15
2022-08-01T11:01:53.255Z,87.35
2022-08-01T11:03:59.899Z,88.10
2022-08-01T11:04:53.218Z,87.81
2022-08-01T11:06:53.227Z,87.41
2022-08-01T11:07:53.238Z,87.07
2022-08-01T11:08:53.239Z,87.07
2022-08-01T11:09:53.270Z,87.32
2022-08-01T11:10:53.251Z,86.83
2022-08-01T11:11:53.253Z,85.88
2022-08-01T11:12:53.258Z,85.88
2022-08-01T11:13:53.270Z,86.04
2022-08-01T11:14:55.850Z,85.35
2022-08-01T11:15:53.278Z,85.84
2022-08-01T11:16:53.285Z,85.40
2022-08-01T11:17:54.803Z,85.00
2022-08-01T11:18:53.295Z,84.87
2022-08-01T11:19:53.297Z,84.08
2022-08-01T11:21:58.160Z,84.97
2022-08-01T11:22:53.315Z,84.97
2022-08-01T11:23:53.326Z,83.98
2022-08-01T11:24:53.327Z,85.06
2022-08-01T11:26:03.929Z,84.87
2022-08-01T11:26:53.339Z,84.87
2022-08-01T11:27:53.339Z,84.91
2022-08-01T11:29:53.361Z,85.40
2022-08-01T11:30:53.380Z,84.71
2022-08-01T11:31:53.424Z,86.10
2022-08-01T11:33:11.676Z,85.30
2022-08-01T11:33:55.065Z,85.30
2022-08-01T11:34:53.401Z,85.89
2022-08-01T11:35:53.388Z,85.21
2022-08-01T11:36:58.871Z,84.91
2022-08-01T11:37:53.402Z,85.50
2022-08-01T11:38:53.610Z,85.46
2022-08-01T11:39:53.411Z,84.41
2022-08-01T11:40:53.422Z,85.46
2022-08-01T11:42:53.431Z,84.17
2022-08-01T11:43:53.439Z,83.78
2022-08-01T11:44:53.443Z,83.98
2022-08-01T11:46:53.451Z,84.08
2022-08-01T11:47:53.461Z,84.41
2022-08-01T11:48:53.529Z,85.00
2022-08-01T11:49:53.469Z,85.40
2022-08-01T11:50:53.478Z,85.70
2022-08-01T11:51:53.485Z,85.35
2022-08-01T11:52:53.489Z,85.25
2022-08-01T11:53:53.599Z,84.79
2022-08-01T11:54:53.507Z,86.08
2022-08-01T11:55:53.502Z,86.41
2022-08-01T11:56:53.507Z,86.81
2022-08-01T11:57:53.719Z,88.20
2022-08-01T11:58:53.574Z,87.70
2022-08-01T12:00:03.507Z,88.14
2022-08-01T12:01:53.596Z,89.47
2022-08-01T12:02:53.646Z,90.17
2022-08-01T12:03:53.552Z,90.17
2022-08-01T12:04:53.552Z,90.07
2022-08-01T12:05:53.559Z,90.96
2022-08-01T12:06:53.561Z,90.41
2022-08-01T12:07:53.975Z,90.80
2022-08-01T12:08:53.576Z,91.20
2022-08-01T12:09:53.579Z,91.20
2022-08-01T12:11:01.993Z,91.89
2022-08-01T12:11:53.592Z,92.19
2022-08-01T12:12:53.603Z,93.28
2022-08-01T12:13:53.606Z,93.14
2022-08-01T12:14:53.602Z,93.08
2022-08-01T12:15:56.790Z,93.08
2022-08-01T12:16:53.617Z,92.29
2022-08-01T12:17:57.994Z,93.04
2022-08-01T12:19:53.631Z,91.50
2022-08-01T12:20:57.146Z,91.74
2022-08-01T12:22:53.651Z,91.99
2022-08-01T12:23:53.649Z,91.40
2022-08-01T12:24:53.659Z,90.66
2022-08-01T12:25:53.662Z,91.06
2022-08-01T12:26:53.665Z,89.92
2022-08-01T12:27:56.620Z,89.88
2022-08-01T12:28:53.677Z,88.59
2022-08-01T12:29:53.691Z,88.65
2022-08-01T12:30:53.684Z,87.96
2022-08-01T12:31:53.698Z,87.62
2022-08-01T12:32:53.726Z,86.43
2022-08-01T12:33:53.703Z,86.98
2022-08-01T12:34:53.716Z,86.55
2022-08-01T12:35:53.719Z,86.11
2022-08-01T12:36:53.723Z,84.73
2022-08-01T12:37:53.731Z,84.39
2022-08-01T12:38:53.729Z,83.46
2022-08-01T12:39:53.737Z,83.11
2022-08-01T12:40:54.750Z,83.31
2022-08-01T12:41:53.748Z,84.19
2022-08-01T12:42:53.752Z,83.56
2022-08-01T12:43:53.762Z,83.26
2022-08-01T12:44:53.763Z,82.91
2022-08-01T12:45:56.420Z,82.95
2022-08-01T12:46:53.776Z,83.64
2022-08-01T12:48:53.864Z,84.63
2022-08-01T12:49:53.802Z,86.84
2022-08-01T12:50:54.006Z,88.72
2022-08-01T12:51:57.249Z,89.22
2022-08-01T12:52:53.818Z,89.26
2022-08-01T12:53:53.816Z,90.54
2022-08-01T12:54:53.823Z,90.48
2022-08-01T12:55:59.295Z,91.28
2022-08-01T12:56:53.839Z,93.16
2022-08-01T12:57:53.838Z,90.39
2022-08-01T12:58:53.896Z,89.44
2022-08-01T12:59:53.852Z,90.98
2022-08-01T13:00:53.912Z,90.88
2022-08-01T13:01:53.974Z,91.08
2022-08-01T13:02:53.877Z,90.78
2022-08-01T13:03:53.875Z,90.69
2022-08-01T13:04:53.881Z,90.78
2022-08-01T13:05:53.884Z,90.48
2022-08-01T13:06:54.091Z,89.95
2022-08-01T13:08:53.901Z,89.65
2022-08-01T13:09:53.907Z,87.93
2022-08-01T13:10:53.913Z,88.03
2022-08-01T13:12:04.299Z,88.68
2022-08-01T13:12:53.931Z,88.14
2022-08-01T13:13:53.936Z,87.86
2022-08-01T13:14:53.939Z,85.39
2022-08-01T13:15:55.163Z,84.27
2022-08-01T13:16:57.251Z,85.02
2022-08-01T13:17:53.955Z,84.03
2022-08-01T13:18:53.961Z,83.89
2022-08-01T13:19:58.710Z,83.89
2022-08-01T13:20:53.974Z,82.12
2022-08-01T13:21:55.045Z,82.18
2022-08-01T13:22:53.986Z,81.68